Time;durP1;ratioP1;P1;durP2;ratioP2;P2;SDS_P1;SDS_P2;PMS_P1;PMS_P2;Temp;Humidity;BMP_temperature;BMP_pressure;BME280_temperature;BME280_humidity;BME280_pressure;Samples;Min_cycle;Max_cycle;Signal;HPM_P1;HPM_P2
2024/01/17 00:00:42;;;;;;;20.30;10.20;;;;;;;-4.10;74.82;94136.47;5011368;28;20559;-75
2024/01/17 00:03:07;;;;;;;19.77;10.73;;;;;;;-4.14;74.80;94132.50;5013900;28;20472;-76
2024/01/17 00:05:33;;;;;;;19.93;9.97;;;;;;;-4.09;74.90;94122.88;5027908;28;20183;-76
2024/01/17 00:07:59;;;;;;;18.07;9.67;;;;;;;-4.07;74.57;94126.94;5028259;28;20183;-76
2024/01/17 00:10:24;;;;;;;13.93;8.30;;;;;;;-4.03;74.76;94118.25;5012017;28;20234;-77
2024/01/17 00:12:50;;;;;;;16.07;8.73;;;;;;;-4.05;74.55;94125.16;5028215;28;20187;-77
2024/01/17 00:15:15;;;;;;;13.43;7.37;;;;;;;-4.05;74.21;94116.72;5027865;28;20569;-77
2024/01/17 00:17:41;;;;;;;10.47;6.20;;;;;;;-4.00;74.79;94117.25;5012218;28;20194;-76
2024/01/17 00:20:06;;;;;;;11.60;7.93;;;;;;;-4.01;74.75;94113.91;5027445;28;20261;-76
2024/01/17 00:22:32;;;;;;;13.77;8.20;;;;;;;-4.00;74.54;94104.56;5012522;28;20221;-77
2024/01/17 00:24:57;;;;;;;14.43;8.47;;;;;;;-3.88;74.70;94090.31;4992962;28;20246;-76
2024/01/17 00:27:25;;;;;;;13.90;7.90;;;;;;;-3.93;74.60;94075.38;5029048;28;20197;-77
2024/01/17 00:29:57;;;;;;;13.47;8.40;;;;;;;-3.87;74.36;94091.94;5027094;28;20678;-76
2024/01/17 00:32:23;;;;;;;11.10;7.13;;;;;;;-3.87;74.70;94097.81;5012495;28;20226;-77
2024/01/17 00:34:48;;;;;;;13.80;7.83;;;;;;;-3.89;74.32;94104.69;5012206;28;20639;-76
2024/01/17 00:37:14;;;;;;;15.50;7.93;;;;;;;-4.12;75.46;94097.72;5012627;28;20218;-77
2024/01/17 00:39:39;;;;;;;9.83;7.23;;;;;;;-4.04;75.12;94085.41;5010692;28;20715;-76
2024/01/17 00:42:06;;;;;;;16.97;8.17;;;;;;;-3.86;74.34;94081.69;5013995;28;20661;-76
2024/01/17 00:44:31;;;;;;;12.03;7.37;;;;;;;-3.79;73.83;94070.25;5019122;28;20247;-76
2024/01/17 00:46:57;;;;;;;12.47;8.03;;;;;;;-3.81;73.88;94072.06;5018052;28;20199;-76
2024/01/17 00:49:22;;;;;;;11.07;7.50;;;;;;;-3.79;73.72;94065.19;5013905;28;20209;-77
2024/01/17 00:51:47;;;;;;;13.37;7.23;;;;;;;-3.72;73.90;94061.31;5033744;28;20175;-77
2024/01/17 00:54:13;;;;;;;14.43;7.50;;;;;;;-3.68;73.67;94056.06;5018228;28;20199;-75
2024/01/17 00:56:39;;;;;;;10.50;6.97;;;;;;;-3.60;73.33;94058.94;5019142;28;20261;-77
2024/01/17 00:59:04;;;;;;;11.47;7.10;;;;;;;-3.62;73.84;94060.72;5019364;28;20237;-78
2024/01/17 01:01:30;;;;;;;12.97;7.20;;;;;;;-3.66;74.21;94067.72;5012271;28;20217;-76
2024/01/17 01:03:55;;;;;;;12.47;7.30;;;;;;;-3.66;74.19;94079.59;5033922;28;20195;-76
2024/01/17 01:06:20;;;;;;;11.00;6.90;;;;;;;-3.68;74.09;94076.38;5034363;28;20588;-77
2024/01/17 01:08:46;;;;;;;10.73;6.60;;;;;;;-3.53;73.92;94060.97;5033591;28;20222;-77
2024/01/17 01:11:11;;;;;;;10.30;5.63;;;;;;;-3.53;72.89;94055.09;5016930;28;20229;-77
2024/01/17 01:13:36;;;;;;;10.37;6.30;;;;;;;-3.46;72.52;94046.13;5033491;28;20207;-77
2024/01/17 01:16:03;;;;;;;8.77;5.60;;;;;;;-3.39;72.92;94041.47;5011233;28;20204;-76
2024/01/17 01:18:29;;;;;;;11.20;5.60;;;;;;;-3.34;71.71;94054.69;5050000;28;20167;-76
2024/01/17 01:20:55;;;;;;;8.47;5.30;;;;;;;-3.29;72.04;94045.84;5030922;28;20234;-76
2024/01/17 01:23:24;;;;;;;9.70;6.07;;;;;;;-3.29;71.87;94048.38;5028159;28;20282;-76
2024/01/17 01:25:50;;;;;;;9.60;5.17;;;;;;;-3.31;72.14;94041.78;5001702;28;20754;-76
2024/01/17 01:28:15;;;;;;;11.30;6.70;;;;;;;-3.31;72.67;94040.06;5033593;28;20199;-76
2024/01/17 01:30:41;;;;;;;8.03;5.17;;;;;;;-3.32;71.79;94035.91;5017764;28;20707;-77
2024/01/17 01:33:06;;;;;;;7.07;4.90;;;;;;;-3.27;71.15;94026.25;5017188;28;20191;-77
2024/01/17 01:35:31;;;;;;;9.20;4.83;;;;;;;-3.21;70.95;94020.75;5033945;28;20194;-76
2024/01/17 01:37:57;;;;;;;7.40;4.43;;;;;;;-3.14;71.04;94016.91;5001889;28;20219;-77
2024/01/17 01:40:22;;;;;;;8.03;4.90;;;;;;;-3.12;70.82;94006.63;5034709;28;20238;-77
2024/01/17 01:42:48;;;;;;;9.20;4.73;;;;;;;-3.08;71.24;94000.44;5018585;28;20218;-76
2024/01/17 01:45:13;;;;;;;8.20;4.93;;;;;;;-3.12;71.81;93993.94;5002189;28;20199;-76
2024/01/17 01:47:38;;;;;;;8.10;5.10;;;;;;;-3.03;71.55;93993.31;5002061;28;20187;-77
2024/01/17 01:50:05;;;;;;;9.67;5.47;;;;;;;-3.01;71.29;94003.38;5015617;28;20249;-76
2024/01/17 01:52:34;;;;;;;6.73;5.10;;;;;;;-2.97;71.88;94005.59;5017356;28;20190;-77
2024/01/17 01:55:01;;;;;;;7.53;4.67;;;;;;;-2.96;71.60;93998.78;5017262;28;20198;-75
2024/01/17 01:57:28;;;;;;;10.30;5.03;;;;;;;-2.97;70.64;93989.56;5033196;28;20269;-75
2024/01/17 01:59:54;;;;;;;8.80;4.10;;;;;;;-2.96;69.59;93986.09;4995882;28;20207;-76
2024/01/17 02:02:19;;;;;;;5.13;3.40;;;;;;;-2.92;69.69;93985.75;5033610;28;20203;-77
2024/01/17 02:04:45;;;;;;;9.07;4.00;;;;;;;-2.78;69.26;93977.22;5018443;28;20195;-77
2024/01/17 02:07:12;;;;;;;7.53;4.10;;;;;;;-2.74;69.68;93967.63;5033667;28;20274;-77
2024/01/17 02:09:38;;;;;;;8.73;4.30;;;;;;;-2.72;70.01;93965.81;5016066;28;20211;-76
2024/01/17 02:12:05;;;;;;;6.13;3.90;;;;;;;-2.72;69.63;93965.81;5008114;28;20180;-77
2024/01/17 02:14:30;;;;;;;7.60;4.00;;;;;;;-2.66;70.24;93957.75;5018574;28;20183;-76
2024/01/17 02:16:56;;;;;;;4.90;3.50;;;;;;;-2.54;70.32;93951.00;5011002;28;20202;-77
2024/01/17 02:19:21;;;;;;;6.60;4.00;;;;;;;-2.41;70.06;93954.31;5015752;28;20215;-76
2024/01/17 02:21:47;;;;;;;5.13;3.43;;;;;;;-2.44;70.65;93950.25;5016952;28;20262;-77
2024/01/17 02:24:22;;;;;;;4.17;3.13;;;;;;;-2.25;70.34;93948.94;5017844;28;20641;-78
2024/01/17 02:26:47;;;;;;;5.70;3.63;;;;;;;-2.37;71.16;93943.81;5015856;28;20199;-77
2024/01/17 02:29:13;;;;;;;7.37;3.53;;;;;;;-2.25;70.96;93938.78;5032099;28;20221;-77
2024/01/17 02:31:38;;;;;;;5.70;3.27;;;;;;;-2.23;71.04;93936.91;5033118;28;20175;-76
2024/01/17 02:34:04;;;;;;;5.00;3.37;;;;;;;-2.05;70.83;93927.97;5020249;28;20184;-77
2024/01/17 02:36:29;;;;;;;7.40;4.10;;;;;;;-2.02;70.76;93931.09;5024348;28;20206;-78
2024/01/17 02:38:55;;;;;;;6.37;4.30;;;;;;;-2.23;71.27;93927.56;5023447;28;20223;-77
2024/01/17 02:41:20;;;;;;;5.50;3.90;;;;;;;-2.06;71.06;93923.81;5024556;28;20226;-78
2024/01/17 02:43:45;;;;;;;8.73;4.37;;;;;;;-2.22;71.60;93924.09;5023844;28;20263;-77
2024/01/17 02:46:12;;;;;;;7.73;4.20;;;;;;;-2.17;71.56;93921.22;5023010;28;20279;-77
2024/01/17 02:48:37;;;;;;;6.63;4.50;;;;;;;-2.15;71.67;93915.09;5017904;28;20281;-77
2024/01/17 02:51:02;;;;;;;8.70;4.97;;;;;;;-2.18;72.12;93914.53;5031841;28;20218;-77
2024/01/17 02:53:28;;;;;;;7.97;4.97;;;;;;;-2.13;73.28;93902.28;5015173;28;20791;-77
2024/01/17 02:55:53;;;;;;;9.17;4.90;;;;;;;-2.15;74.71;93893.94;5016998;28;20940;-77
2024/01/17 02:58:18;;;;;;;7.13;4.10;;;;;;;-2.21;75.88;93900.28;5017338;28;20184;-77
2024/01/17 03:00:44;;;;;;;7.77;4.03;;;;;;;-2.01;75.22;93886.94;5032293;28;20199;-77
2024/01/17 03:03:10;;;;;;;6.33;4.50;;;;;;;-1.85;75.21;93890.91;5032999;28;20677;-76
2024/01/17 03:05:37;;;;;;;5.30;4.17;;;;;;;-2.03;76.42;93893.06;4989233;28;20193;-76
2024/01/17 03:08:05;;;;;;;6.93;4.33;;;;;;;-1.89;76.90;93884.41;5017468;28;20202;-75
2024/01/17 03:10:31;;;;;;;4.70;3.77;;;;;;;-1.77;76.06;93884.31;5030482;28;20194;-77
2024/01/17 03:12:57;;;;;;;6.37;3.90;;;;;;;-1.82;77.10;93876.22;5019771;28;20183;-77
2024/01/17 03:15:23;;;;;;;5.17;3.73;;;;;;;-1.72;77.24;93871.25;5003178;28;20545;-77
2024/01/17 03:17:48;;;;;;;5.93;4.20;;;;;;;-1.70;77.79;93879.56;5019340;28;20203;-76
2024/01/17 03:20:14;;;;;;;6.10;3.70;;;;;;;-1.68;77.80;93882.00;5035985;28;20297;-76
2024/01/17 03:22:40;;;;;;;5.47;3.70;;;;;;;-1.76;78.35;93880.03;5035896;28;20588;-77
2024/01/17 03:25:05;;;;;;;5.10;3.70;;;;;;;-1.76;78.77;93878.31;5036060;28;20187;-77
2024/01/17 03:27:31;;;;;;;5.73;3.83;;;;;;;-1.74;79.18;93873.91;5019635;28;20193;-77
2024/01/17 03:29:56;;;;;;;7.10;4.83;;;;;;;-1.78;79.59;93874.22;5018322;28;20215;-76
2024/01/17 03:32:21;;;;;;;6.57;4.30;;;;;;;-1.59;79.17;93866.88;5035367;28;20190;-76
2024/01/17 03:34:47;;;;;;;5.60;4.20;;;;;;;-1.72;79.78;93873.78;5019140;28;20595;-77
2024/01/17 03:37:12;;;;;;;9.63;4.27;;;;;;;-1.51;79.54;93868.81;5019079;28;20226;-77
2024/01/17 03:39:42;;;;;;;5.73;4.53;;;;;;;-1.64;80.44;93858.75;5001812;28;20599;-76
2024/01/17 03:42:07;;;;;;;7.77;4.77;;;;;;;-1.53;80.25;93860.47;5002463;28;20284;-76
2024/01/17 03:44:33;;;;;;;9.40;4.10;;;;;;;-1.47;80.88;93855.75;5019483;28;20791;-77
2024/01/17 03:46:58;;;;;;;7.43;4.67;;;;;;;-1.34;80.51;93849.69;5017852;28;20185;-77
2024/01/17 03:49:23;;;;;;;6.33;4.30;;;;;;;-1.32;81.40;93842.78;5019768;28;20205;-77
2024/01/17 03:51:49;;;;;;;6.60;3.97;;;;;;;-1.30;82.07;93825.63;5020171;28;20297;-77
2024/01/17 03:54:14;;;;;;;5.10;3.83;;;;;;;-1.21;83.34;93830.00;5034863;28;20595;-77
2024/01/17 03:56:40;;;;;;;6.40;3.43;;;;;;;-1.15;84.43;93820.16;5018230;28;20189;-77
2024/01/17 03:59:05;;;;;;;5.47;3.03;;;;;;;-1.16;85.43;93808.34;5003615;28;20200;-77
2024/01/17 04:01:31;;;;;;;6.27;3.77;;;;;;;-0.97;85.63;93804.34;5043224;28;20195;-78
2024/01/17 04:03:56;;;;;;;6.13;3.50;;;;;;;-0.84;85.00;93799.09;5009993;28;20195;-77
2024/01/17 04:06:22;;;;;;;4.87;3.50;;;;;;;-0.77;85.34;93795.13;5026215;28;20183;-77
2024/01/17 04:08:48;;;;;;;6.07;3.83;;;;;;;-0.74;85.76;93782.94;5043249;28;20206;-78
2024/01/17 04:11:13;;;;;;;4.80;3.60;;;;;;;-0.54;85.19;93772.88;5026969;28;20183;-78
2024/01/17 04:13:41;;;;;;;4.87;3.50;;;;;;;-0.59;86.70;93766.44;5026000;28;20217;-77
2024/01/17 04:16:07;;;;;;;5.30;4.03;;;;;;;-0.52;86.45;93765.94;5026275;28;20206;-77
2024/01/17 04:18:32;;;;;;;5.80;3.70;;;;;;;-0.62;87.34;93760.75;5024987;28;20197;-77
2024/01/17 04:21:00;;;;;;;5.37;3.77;;;;;;;-0.60;88.34;93756.34;5019382;28;20186;-77
2024/01/17 04:23:25;;;;;;;5.43;4.07;;;;;;;-0.46;87.80;93755.22;5042108;28;20187;-77
2024/01/17 04:25:51;;;;;;;6.07;3.87;;;;;;;-0.46;88.65;93750.13;5010037;28;20194;-77
2024/01/17 04:28:17;;;;;;;6.50;4.10;;;;;;;-0.43;89.18;93753.25;5025555;28;20198;-78
2024/01/17 04:30:44;;;;;;;7.33;4.33;;;;;;;-0.21;87.84;93743.81;5008569;28;20267;-78
2024/01/17 04:33:09;;;;;;;5.17;3.90;;;;;;;-0.36;88.62;93741.59;5025336;28;20182;-77
2024/01/17 04:35:34;;;;;;;6.63;4.40;;;;;;;-0.44;89.79;93738.03;5024764;28;20187;-76
2024/01/17 04:38:00;;;;;;;7.40;4.87;;;;;;;-0.45;90.50;93736.44;5008611;28;20225;-77
2024/01/17 04:40:25;;;;;;;7.00;4.70;;;;;;;-0.32;90.13;93727.66;5024741;28;20207;-77
2024/01/17 04:42:51;;;;;;;6.50;5.10;;;;;;;-0.19;89.48;93722.34;5024659;28;20222;-77
2024/01/17 04:45:19;;;;;;;6.97;5.63;;;;;;;-0.31;89.77;93713.16;5041583;28;20187;-77
2024/01/17 04:47:44;;;;;;;9.20;6.53;;;;;;;-0.28;89.32;93710.34;5008032;28;20191;-77
2024/01/17 04:50:12;;;;;;;13.23;7.97;;;;;;;-0.32;90.58;93699.59;5024572;28;20287;-77
2024/01/17 04:52:38;;;;;;;18.00;11.07;;;;;;;-0.38;93.18;93694.19;5008765;28;20205;-77
2024/01/17 04:55:04;;;;;;;23.10;13.77;;;;;;;-0.23;92.97;93697.22;5008161;28;20270;-77
2024/01/17 04:57:30;;;;;;;21.40;14.13;;;;;;;-0.10;93.21;93688.41;5024371;28;20205;-78
2024/01/17 04:59:55;;;;;;;23.17;14.07;;;;;;;0.00;92.79;93685.91;5023878;28;20205;-77
2024/01/17 05:02:20;;;;;;;24.40;14.80;;;;;;;-0.13;93.71;93683.56;5004777;28;20217;-78
2024/01/17 05:04:46;;;;;;;23.27;14.67;;;;;;;-0.09;94.27;93676.44;5019780;28;20632;-77
2024/01/17 05:07:11;;;;;;;25.23;15.57;;;;;;;-0.08;93.78;93665.34;5018857;28;20197;-78
2024/01/17 05:09:37;;;;;;;26.13;16.23;;;;;;;0.14;93.11;93667.66;5018709;28;20202;-77
2024/01/17 05:12:03;;;;;;;26.83;17.23;;;;;;;0.06;93.09;93651.41;5019787;28;20186;-77
2024/01/17 05:14:29;;;;;;;28.33;17.10;;;;;;;0.06;93.12;93659.84;5018477;28;20258;-78
2024/01/17 05:16:54;;;;;;;31.40;17.03;;;;;;;0.01;93.96;93649.25;5034392;28;20687;-78
2024/01/17 05:19:19;;;;;;;27.97;17.73;;;;;;;0.06;94.22;93644.53;5012166;28;20262;-76
2024/01/17 05:21:45;;;;;;;28.50;18.00;;;;;;;0.24;93.32;93634.50;5016403;28;20233;-77
2024/01/17 05:24:10;;;;;;;28.70;17.33;;;;;;;0.34;92.46;93626.84;5034884;28;20218;-77
2024/01/17 05:26:35;;;;;;;28.60;18.03;;;;;;;0.22;93.65;93633.84;5033880;28;20195;-76
2024/01/17 05:29:01;;;;;;;28.60;18.03;;;;;;;0.27;93.15;93621.50;5016598;28;20308;-79
2024/01/17 05:31:26;;;;;;;33.03;18.90;;;;;;;0.15;93.36;93615.69;5032487;28;20190;-77
2024/01/17 05:33:52;;;;;;;26.83;16.97;;;;;;;0.14;93.76;93619.19;5032073;28;20242;-77
2024/01/17 05:36:17;;;;;;;31.07;17.70;;;;;;;0.28;93.33;93606.03;5031849;28;20190;-77
2024/01/17 05:38:43;;;;;;;30.50;17.97;;;;;;;0.34;93.38;93591.91;5015689;28;20729;-77
2024/01/17 05:41:09;;;;;;;31.00;18.33;;;;;;;0.32;93.96;93587.88;5032284;28;20219;-76
2024/01/17 05:43:34;;;;;;;28.77;18.30;;;;;;;0.32;93.88;93578.47;5048919;28;20242;-76
2024/01/17 05:45:59;;;;;;;32.80;18.93;;;;;;;0.35;94.05;93574.84;5015034;28;20174;-76
2024/01/17 05:48:25;;;;;;;32.60;18.63;;;;;;;0.25;94.03;93565.44;5041791;28;20202;-77
2024/01/17 05:50:50;;;;;;;30.33;19.37;;;;;;;0.30;93.91;93566.81;5044708;28;20213;-77
2024/01/17 05:53:16;;;;;;;31.90;19.80;;;;;;;0.27;94.76;93561.03;5025293;28;20625;-77
2024/01/17 05:55:42;;;;;;;34.30;20.23;;;;;;;0.24;94.72;93565.56;5015854;28;20197;-77
2024/01/17 05:58:07;;;;;;;33.57;20.03;;;;;;;0.24;95.73;93556.16;5031905;28;20185;-76
2024/01/17 06:00:32;;;;;;;30.17;19.07;;;;;;;0.19;96.09;93545.56;5013965;28;20289;-77
2024/01/17 06:02:58;;;;;;;31.90;20.47;;;;;;;0.27;95.40;93540.59;4998763;28;20198;-76
2024/01/17 06:05:23;;;;;;;32.80;20.40;;;;;;;0.28;95.57;93539.66;4998691;28;20266;-77
2024/01/17 06:07:49;;;;;;;35.77;20.27;;;;;;;0.37;95.31;93525.28;5025334;28;20186;-77
2024/01/17 06:10:15;;;;;;;36.00;20.37;;;;;;;0.19;96.61;93532.00;5019822;28;20212;-77
2024/01/17 06:12:40;;;;;;;34.83;20.83;;;;;;;0.31;96.13;93525.00;5022270;28;20210;-77
2024/01/17 06:15:06;;;;;;;36.77;22.83;;;;;;;0.37;95.70;93520.16;5015623;28;20191;-78
2024/01/17 06:17:32;;;;;;;39.40;21.03;;;;;;;0.48;94.73;93522.56;5030305;28;20202;-78
2024/01/17 06:19:57;;;;;;;38.20;22.40;;;;;;;0.37;95.19;93509.16;5005447;28;20215;-78
2024/01/17 06:22:22;;;;;;;36.27;22.20;;;;;;;0.42;95.65;93507.78;5022547;28;20202;-77
2024/01/17 06:24:48;;;;;;;35.33;21.47;;;;;;;0.39;95.39;93505.50;5039192;28;20192;-78
2024/01/17 06:27:14;;;;;;;34.50;20.37;;;;;;;0.33;95.28;93503.50;5039557;28;20214;-77
2024/01/17 06:29:43;;;;;;;35.67;21.03;;;;;;;0.32;95.59;93495.97;5009935;28;20222;-78
2024/01/17 06:32:09;;;;;;;37.53;20.40;;;;;;;0.42;95.76;93496.75;5004716;28;20182;-77
2024/01/17 06:34:34;;;;;;;36.60;21.20;;;;;;;0.45;95.24;93487.09;5023621;28;20197;-77
2024/01/17 06:36:59;;;;;;;33.70;21.13;;;;;;;0.45;95.24;93481.19;5022683;28;20218;-77
2024/01/17 06:39:26;;;;;;;34.90;20.23;;;;;;;0.31;96.10;93471.38;5039149;28;20221;-78
2024/01/17 06:41:52;;;;;;;38.37;21.23;;;;;;;0.50;95.18;93474.72;5023757;28;20229;-78
2024/01/17 06:44:17;;;;;;;40.40;20.93;;;;;;;0.41;95.76;93462.78;5032715;28;20187;-77
2024/01/17 06:46:42;;;;;;;43.90;22.17;;;;;;;0.40;95.62;93462.91;5026506;28;20210;-77
2024/01/17 06:49:08;;;;;;;34.00;21.37;;;;;;;0.55;94.33;93464.09;5035963;28;20202;-77
2024/01/17 06:51:33;;;;;;;35.53;20.63;;;;;;;0.42;95.19;93461.81;5035980;28;20236;-77
2024/01/17 06:53:58;;;;;;;38.63;21.50;;;;;;;0.45;95.30;93456.47;5012858;28;20210;-76
2024/01/17 06:56:24;;;;;;;39.53;21.90;;;;;;;0.43;95.19;93458.31;5029476;28;20210;-77
2024/01/17 06:58:49;;;;;;;36.03;20.77;;;;;;;0.62;94.28;93449.00;5013022;28;20690;-77
2024/01/17 07:01:14;;;;;;;35.77;21.47;;;;;;;0.55;95.27;93447.03;5013540;28;20631;-77
2024/01/17 07:03:40;;;;;;;36.23;21.40;;;;;;;0.47;95.02;93441.00;5016505;28;20590;-77
2024/01/17 07:06:05;;;;;;;39.23;20.47;;;;;;;0.49;95.40;93434.81;5017859;28;20216;-77
2024/01/17 07:08:31;;;;;;;38.83;22.23;;;;;;;0.46;95.55;93432.53;5011339;28;20179;-77
2024/01/17 07:10:56;;;;;;;38.30;21.27;;;;;;;0.54;95.06;93432.66;4997963;28;20179;-76
2024/01/17 07:13:21;;;;;;;36.17;21.30;;;;;;;0.42;95.81;93422.72;5013042;28;20183;-76
2024/01/17 07:15:47;;;;;;;37.03;21.50;;;;;;;0.44;95.16;93429.31;5025748;28;20277;-76
2024/01/17 07:18:12;;;;;;;36.07;23.03;;;;;;;0.46;96.00;93417.22;5017046;28;20186;-77
2024/01/17 07:20:37;;;;;;;34.27;20.90;;;;;;;0.40;96.33;93410.09;5017451;28;20211;-76
2024/01/17 07:23:03;;;;;;;36.43;21.03;;;;;;;0.37;96.28;93405.28;5018016;28;20206;-77
2024/01/17 07:25:28;;;;;;;34.53;20.33;;;;;;;0.58;96.11;93405.06;5029284;28;20233;-76
2024/01/17 07:27:53;;;;;;;35.77;20.37;;;;;;;0.60;95.69;93398.06;5014016;28;20210;-76
2024/01/17 07:30:19;;;;;;;33.07;19.63;;;;;;;0.67;96.03;93400.88;5013884;28;20555;-77
2024/01/17 07:32:45;;;;;;;33.77;19.73;;;;;;;0.71;95.60;93397.91;5030443;28;20637;-76
2024/01/17 07:35:10;;;;;;;36.03;20.23;;;;;;;0.76;95.76;93398.28;5014644;28;20539;-76
2024/01/17 07:37:36;;;;;;;35.90;21.07;;;;;;;0.85;95.30;93392.31;5015035;28;20229;-76
2024/01/17 07:40:02;;;;;;;36.93;20.90;;;;;;;0.68;96.34;93387.94;4996852;28;20218;-77
2024/01/17 07:42:27;;;;;;;38.77;21.67;;;;;;;0.81;96.26;93385.09;5029952;28;20199;-76
2024/01/17 07:44:53;;;;;;;39.27;20.90;;;;;;;0.81;95.78;93391.00;5012655;28;20206;-76
2024/01/17 07:47:18;;;;;;;35.47;21.27;;;;;;;0.85;95.21;93392.31;5016546;28;20217;-76
2024/01/17 07:49:44;;;;;;;35.63;20.40;;;;;;;0.87;95.29;93379.38;5012760;28;20692;-77
2024/01/17 07:52:10;;;;;;;37.23;21.37;;;;;;;0.84;96.10;93379.69;5013099;28;20179;-76
2024/01/17 07:54:36;;;;;;;34.40;20.43;;;;;;;0.76;96.42;93375.28;4999186;28;20192;-76
2024/01/17 07:57:04;;;;;;;34.77;20.40;;;;;;;0.88;96.50;93370.78;5027887;28;20182;-76
2024/01/17 07:59:30;;;;;;;33.07;19.93;;;;;;;1.04;95.35;93359.94;5011708;28;20211;-76
2024/01/17 08:01:56;;;;;;;38.07;21.30;;;;;;;1.03;96.20;93359.13;5010269;28;20210;-76
2024/01/17 08:04:21;;;;;;;33.90;21.20;;;;;;;1.09;96.06;93360.31;5028464;28;20855;-75
2024/01/17 08:06:47;;;;;;;33.37;20.30;;;;;;;1.14;96.33;93358.13;5011711;28;20226;-77
2024/01/17 08:09:22;;;;;;;39.07;20.70;;;;;;;1.14;96.52;93358.13;5027482;28;20825;-75
2024/01/17 08:11:51;;;;;;;33.80;20.23;;;;;;;1.21;96.61;93360.91;5012562;28;20187;-75
2024/01/17 08:14:17;;;;;;;32.63;19.03;;;;;;;1.20;96.80;93355.00;5006907;28;20585;-76
2024/01/17 08:16:43;;;;;;;30.63;18.57;;;;;;;1.27;97.29;93350.13;5010187;28;20254;-75
2024/01/17 08:19:09;;;;;;;33.83;19.30;;;;;;;1.32;96.81;93343.59;5010371;28;20211;-75
2024/01/17 08:21:34;;;;;;;34.93;20.77;;;;;;;1.20;97.56;93336.28;5027526;28;20252;-75
2024/01/17 08:24:00;;;;;;;31.83;18.87;;;;;;;1.36;96.74;93339.00;5012504;28;20183;-76
2024/01/17 08:26:25;;;;;;;30.13;18.27;;;;;;;1.49;96.59;93329.19;5027531;28;20182;-75
2024/01/17 08:28:51;;;;;;;29.87;18.10;;;;;;;1.50;95.95;93330.00;5027174;28;20203;-73
2024/01/17 08:31:16;;;;;;;28.07;16.70;;;;;;;1.44;97.35;93328.06;5010365;28;20187;-74
2024/01/17 08:33:42;;;;;;;27.07;16.23;;;;;;;1.31;97.85;93328.41;5027346;28;20282;-75
2024/01/17 08:36:08;;;;;;;25.77;15.73;;;;;;;1.41;97.39;93314.63;5009301;28;20642;-75
2024/01/17 08:38:33;;;;;;;28.00;16.40;;;;;;;1.54;97.92;93314.22;5026351;28;20672;-75
2024/01/17 08:40:58;;;;;;;25.73;14.87;;;;;;;1.31;97.99;93316.41;4993648;28;20205;-75
2024/01/17 08:43:24;;;;;;;26.63;15.93;;;;;;;1.67;97.27;93303.59;5027688;28;20797;-74
2024/01/17 08:45:50;;;;;;;26.30;15.50;;;;;;;1.56;97.45;93296.97;5026441;28;20189;-75
2024/01/17 08:48:15;;;;;;;23.87;15.30;;;;;;;1.53;97.95;93289.59;5010668;28;20249;-75
2024/01/17 08:50:40;;;;;;;22.83;14.43;;;;;;;1.57;97.76;93279.88;5009963;28;20203;-75
2024/01/17 08:53:06;;;;;;;22.17;14.20;;;;;;;1.58;98.15;93282.28;5019350;28;20245;-75
2024/01/17 08:55:31;;;;;;;20.60;13.20;;;;;;;1.62;97.57;93275.13;5011651;28;20253;-75
2024/01/17 08:57:57;;;;;;;22.60;13.93;;;;;;;1.61;97.47;93273.53;4994211;28;20194;-74
2024/01/17 09:00:22;;;;;;;22.80;13.90;;;;;;;1.76;96.97;93264.31;5026177;28;20211;-75
2024/01/17 09:02:47;;;;;;;23.00;14.13;;;;;;;1.85;97.40;93270.31;5026543;28;20199;-75
2024/01/17 09:05:13;;;;;;;21.07;14.40;;;;;;;1.72;97.37;93263.03;5025090;28;20651;-73
2024/01/17 09:07:42;;;;;;;22.97;14.03;;;;;;;1.82;97.88;93255.25;5007931;28;20183;-75
2024/01/17 09:10:08;;;;;;;19.63;12.97;;;;;;;1.90;97.11;93258.66;5010448;28;20203;-75
2024/01/17 09:12:34;;;;;;;18.53;13.30;;;;;;;1.87;96.57;93255.63;5021270;28;20183;-74
2024/01/17 09:14:59;;;;;;;24.87;14.87;;;;;;;1.94;97.34;93256.59;5023418;28;20907;-74
2024/01/17 09:17:24;;;;;;;21.63;13.07;;;;;;;1.96;97.01;93254.72;5010928;28;20182;-75
2024/01/17 09:19:50;;;;;;;22.67;13.20;;;;;;;1.99;96.16;93247.53;5009057;28;20203;-74
2024/01/17 09:22:15;;;;;;;18.57;12.10;;;;;;;2.06;96.58;93242.59;5010370;28;20206;-75
2024/01/17 09:24:41;;;;;;;19.23;12.87;;;;;;;2.06;97.14;93254.59;5016878;28;20191;-78
2024/01/17 09:27:06;;;;;;;20.50;12.73;;;;;;;2.08;96.37;93247.56;5009557;28;20192;-74
2024/01/17 09:29:33;;;;;;;18.93;12.67;;;;;;;2.09;96.33;93241.47;5009169;28;20211;-76
2024/01/17 09:32:00;;;;;;;20.77;12.67;;;;;;;2.18;96.03;93228.56;5009706;28;20232;-76
2024/01/17 09:34:25;;;;;;;19.50;12.47;;;;;;;2.09;96.76;93223.56;5009936;28;20187;-76
2024/01/17 09:36:52;;;;;;;15.77;12.13;;;;;;;2.20;95.59;93220.72;5011065;28;20186;-76
2024/01/17 09:39:17;;;;;;;17.33;12.87;;;;;;;2.14;96.40;93211.13;5025603;28;20215;-76
2024/01/17 09:41:43;;;;;;;18.60;12.83;;;;;;;2.00;96.54;93212.47;5026360;28;20257;-76
2024/01/17 09:44:08;;;;;;;21.27;11.53;;;;;;;2.10;97.26;93204.69;5026186;28;20188;-76
2024/01/17 09:46:37;;;;;;;18.27;11.87;;;;;;;2.09;97.01;93209.00;5010943;28;20232;-76
2024/01/17 09:49:02;;;;;;;15.57;11.00;;;;;;;2.30;95.83;93206.06;4993107;28;20244;-76
2024/01/17 09:51:32;;;;;;;14.83;10.73;;;;;;;2.24;96.54;93202.34;5011166;28;20182;-76
2024/01/17 09:53:59;;;;;;;17.23;11.17;;;;;;;2.31;96.18;93194.06;4993714;28;20213;-76
2024/01/17 09:56:26;;;;;;;15.73;10.37;;;;;;;2.30;96.51;93190.69;5009877;28;20557;-76
2024/01/17 09:58:52;;;;;;;15.00;10.93;;;;;;;2.31;96.34;93189.75;5024251;28;20308;-74
2024/01/17 10:01:19;;;;;;;17.90;11.63;;;;;;;2.38;96.33;93182.22;5009345;28;20699;-74
2024/01/17 10:03:46;;;;;;;13.20;9.20;;;;;;;2.22;97.69;93177.88;5025932;28;20211;-74
2024/01/17 10:06:14;;;;;;;17.47;10.80;;;;;;;2.39;95.93;93165.91;5009557;28;20193;-74
2024/01/17 10:08:40;;;;;;;18.10;10.83;;;;;;;2.40;96.39;93163.19;4993069;28;20187;-74
2024/01/17 10:11:06;;;;;;;12.27;9.40;;;;;;;2.26;97.20;93156.91;5024930;28;20186;-74
2024/01/17 10:13:31;;;;;;;14.33;10.33;;;;;;;2.38;96.25;93142.03;5026369;28;20735;-74
2024/01/17 10:15:59;;;;;;;15.53;10.03;;;;;;;2.40;96.76;93135.00;5010848;28;20183;-74
2024/01/17 10:18:25;;;;;;;13.77;9.23;;;;;;;2.52;95.83;93122.69;5009794;28;20586;-76
2024/01/17 10:20:50;;;;;;;13.03;9.73;;;;;;;2.41;96.47;93125.56;5024095;28;20191;-74
2024/01/17 10:23:15;;;;;;;14.17;9.53;;;;;;;2.21;97.63;93110.50;5030083;28;20544;-74
2024/01/17 10:25:42;;;;;;;13.93;9.60;;;;;;;2.52;96.15;93097.88;5013444;28;20621;-75
2024/01/17 10:28:08;;;;;;;16.47;12.03;;;;;;;2.53;95.86;93081.53;5019766;28;20269;-75
2024/01/17 10:30:37;;;;;;;16.83;11.20;;;;;;;2.52;96.15;93077.38;5013128;28;20330;-75
2024/01/17 10:33:03;;;;;;;15.30;11.13;;;;;;;2.47;96.78;93069.38;5013445;28;20190;-75
2024/01/17 10:35:29;;;;;;;13.07;9.17;;;;;;;2.52;96.42;93068.91;5029613;28;20190;-75
2024/01/17 10:37:55;;;;;;;12.23;8.33;;;;;;;2.37;96.92;93055.91;5011482;28;20695;-75
2024/01/17 10:40:20;;;;;;;11.17;7.90;;;;;;;2.43;97.18;93057.03;5027232;28;20278;-75
2024/01/17 10:42:46;;;;;;;14.67;10.73;;;;;;;2.49;96.32;93041.84;5029559;28;20273;-75
2024/01/17 10:45:21;;;;;;;13.80;9.43;;;;;;;2.38;97.39;93031.09;5013136;28;20183;-75
2024/01/17 10:47:46;;;;;;;10.67;8.60;;;;;;;2.48;96.16;93024.88;5012384;28;20273;-76
2024/01/17 10:50:12;;;;;;;10.23;8.13;;;;;;;2.39;96.88;93022.47;5012506;28;20680;-76
2024/01/17 10:52:40;;;;;;;12.93;8.33;;;;;;;2.18;98.56;93016.03;5012974;28;20183;-76
2024/01/17 10:55:08;;;;;;;11.83;8.63;;;;;;;2.43;97.55;93004.06;4996460;28;20179;-75
2024/01/17 10:57:36;;;;;;;10.40;7.57;;;;;;;2.51;96.63;93004.06;5029411;28;20190;-76
2024/01/17 11:00:11;;;;;;;10.60;7.27;;;;;;;2.74;96.29;92988.81;5012483;28;20226;-76
2024/01/17 11:02:36;;;;;;;7.97;6.23;;;;;;;2.51;96.80;92983.56;4999646;28;20712;-75
2024/01/17 11:05:07;;;;;;;6.30;5.50;;;;;;;2.67;97.67;92985.31;5012772;28;20191;-76
2024/01/17 11:07:33;;;;;;;7.20;5.57;;;;;;;2.54;98.10;92978.09;5012511;28;20248;-76
2024/01/17 11:10:02;;;;;;;7.30;5.20;;;;;;;2.52;98.67;92974.09;5028805;28;20886;-76
2024/01/17 11:12:28;;;;;;;7.00;4.77;;;;;;;2.41;100.00;92967.56;5010249;28;20572;-75
2024/01/17 11:14:56;;;;;;;5.87;4.87;;;;;;;2.39;100.00;92959.25;4996331;28;20203;-75
2024/01/17 11:17:22;;;;;;;5.27;4.17;;;;;;;2.41;100.00;92962.44;4996503;28;20183;-76
2024/01/17 11:19:49;;;;;;;7.90;7.03;;;;;;;2.59;100.00;92951.22;5011681;28;20211;-75
2024/01/17 11:22:16;;;;;;;5.80;4.43;;;;;;;2.67;99.80;92954.56;4994189;28;20237;-75